Time;durP1;ratioP1;P1;durP2;ratioP2;P2;SDS_P1;SDS_P2;PMS_P1;PMS_P2;Temp;Humidity;BMP_temperature;BMP_pressure;BME280_temperature;BME280_humidity;BME280_pressure;Samples;Min_cycle;Max_cycle;Signal;HPM_P1;HPM_P2
2022/04/01 00:01:09;;;;;;;14.85;10.20;;;1.80;99.90;;;;;;5035171;28;20040;-78
2022/04/01 00:03:35;;;;;;;14.07;10.95;;;1.80;99.90;;;;;;5035004;28;20084;-81
2022/04/01 00:06:01;;;;;;;14.95;11.05;;;1.80;99.90;;;;;;5016281;28;20064;-79
2022/04/01 00:08:26;;;;;;;14.15;10.38;;;1.80;99.90;;;;;;5034237;28;20024;-79
2022/04/01 00:10:52;;;;;;;14.00;10.60;;;1.80;99.90;;;;;;5034635;28;20512;-80
2022/04/01 00:13:18;;;;;;;15.02;9.82;;;1.80;99.90;;;;;;5016106;28;20105;-79
2022/04/01 00:15:43;;;;;;;15.93;9.63;;;1.80;99.90;;;;;;5034204;28;20508;-79
2022/04/01 00:18:10;;;;;;;13.00;10.10;;;1.80;99.90;;;;;;5016030;28;20026;-79
2022/04/01 00:20:35;;;;;;;12.50;9.18;;;1.80;99.90;;;;;;5034166;28;20117;-78
2022/04/01 00:23:01;;;;;;;15.77;9.82;;;1.80;99.90;;;;;;5017779;28;20061;-79
2022/04/01 00:25:27;;;;;;;14.60;10.65;;;1.80;99.90;;;;;;5035265;28;20105;-79
2022/04/01 00:27:53;;;;;;;15.48;9.98;;;1.80;99.90;;;;;;5016100;28;20401;-79
2022/04/01 00:30:20;;;;;;;13.57;10.70;;;1.80;99.90;;;;;;5033881;28;20025;-78
2022/04/01 00:32:45;;;;;;;16.67;10.38;;;1.80;99.90;;;;;;5033748;28;20484;-77
2022/04/01 00:35:11;;;;;;;14.52;10.93;;;1.80;99.90;;;;;;5015732;28;20021;-78
2022/04/01 00:37:38;;;;;;;14.88;10.40;;;1.70;99.90;;;;;;5033279;28;20104;-79
2022/04/01 00:40:04;;;;;;;13.00;10.05;;;1.80;99.90;;;;;;5015989;28;20036;-77
2022/04/01 00:42:30;;;;;;;13.88;10.48;;;1.70;99.90;;;;;;5016135;28;20029;-78
2022/04/01 00:44:57;;;;;;;17.13;11.30;;;1.70;99.90;;;;;;5045079;28;20476;-78
2022/04/01 00:47:23;;;;;;;17.50;12.07;;;1.70;99.90;;;;;;5053085;28;20013;-78
2022/04/01 00:49:49;;;;;;;15.93;11.00;;;1.80;99.90;;;;;;5036348;28;20507;-79
2022/04/01 00:52:19;;;;;;;15.20;10.48;;;1.70;99.90;;;;;;5053821;28;20049;-77
2022/04/01 00:54:45;;;;;;;14.50;10.80;;;1.70;99.90;;;;;;5036307;28;20052;-79
2022/04/01 00:57:13;;;;;;;17.13;10.40;;;1.70;99.90;;;;;;5035937;28;20027;-79
2022/04/01 00:59:39;;;;;;;13.13;10.35;;;1.70;99.90;;;;;;5053869;28;20391;-79
2022/04/01 01:02:06;;;;;;;16.48;10.30;;;1.70;99.90;;;;;;5055413;28;20024;-79
2022/04/01 01:04:31;;;;;;;12.35;9.45;;;1.80;99.90;;;;;;5036441;28;20525;-78
2022/04/01 01:07:00;;;;;;;13.02;9.98;;;1.70;99.90;;;;;;5054587;28;20061;-79
2022/04/01 01:09:25;;;;;;;12.20;9.27;;;1.60;99.90;;;;;;5037483;28;20025;-79
2022/04/01 01:11:52;;;;;;;14.45;9.52;;;1.60;99.90;;;;;;5036994;28;20101;-78
2022/04/01 01:14:33;;;;;;;13.43;8.98;;;1.60;99.90;;;;;;5054500;28;20048;-79
2022/04/01 01:17:00;;;;;;;15.52;9.10;;;1.50;99.90;;;;;;5054539;28;20029;-80
2022/04/01 01:19:27;;;;;;;12.68;8.73;;;1.50;99.90;;;;;;5055154;28;20033;-77
2022/04/01 01:21:54;;;;;;;14.85;8.57;;;1.50;99.90;;;;;;5055038;28;20021;-79
2022/04/01 01:24:27;;;;;;;10.40;8.00;;;1.50;99.90;;;;;;5054355;28;20021;-79
2022/04/01 01:26:54;;;;;;;10.20;8.05;;;1.50;99.90;;;;;;5076835;23;20530;-81
2022/04/01 01:29:28;;;;;;;12.02;8.30;;;1.60;99.90;;;;;;5038007;28;20399;-79
2022/04/01 01:31:56;;;;;;;11.88;8.43;;;1.60;99.90;;;;;;5037276;28;20033;-83
2022/04/01 01:34:23;;;;;;;13.90;9.43;;;1.50;99.90;;;;;;5055247;28;20033;-80
2022/04/01 01:36:50;;;;;;;11.57;8.38;;;1.50;99.90;;;;;;5037133;28;20029;-83
2022/04/01 01:39:16;;;;;;;10.30;8.20;;;1.50;99.90;;;;;;5056848;28;20499;-81
2022/04/01 01:41:42;;;;;;;11.55;7.82;;;1.50;99.90;;;;;;5039829;28;20116;-79
2022/04/01 01:44:08;;;;;;;13.63;8.07;;;1.50;99.90;;;;;;5041422;28;20027;-81
2022/04/01 01:46:34;;;;;;;13.57;8.30;;;1.50;99.90;;;;;;5075993;28;20040;-81
2022/04/01 01:49:00;;;;;;;10.93;7.78;;;1.50;99.90;;;;;;5058359;28;20028;-81
2022/04/01 01:56:54;;;;;;;13.82;7.30;;;1.40;99.90;;;;;;5074903;28;20533;-80
2022/04/01 01:59:19;;;;;;;12.60;6.65;;;1.40;99.90;;;;;;5057488;28;20025;-80
2022/04/01 02:01:45;;;;;;;8.80;6.70;;;1.40;99.90;;;;;;5057481;28;20459;-83
2022/04/01 02:04:11;;;;;;;9.65;6.43;;;1.40;99.90;;;;;;5058919;28;20028;-80
2022/04/01 02:06:38;;;;;;;9.02;5.65;;;1.40;99.90;;;;;;5056129;28;20480;-81
2022/04/01 02:09:04;;;;;;;13.10;5.95;;;1.40;99.90;;;;;;5057555;28;20021;-81
2022/04/01 02:11:29;;;;;;;6.80;5.10;;;1.40;99.90;;;;;;5058260;28;20533;-82
2022/04/01 02:13:55;;;;;;;8.63;5.15;;;1.40;99.90;;;;;;5056724;28;20055;-79
2022/04/01 02:16:21;;;;;;;7.10;5.32;;;1.30;99.90;;;;;;5077178;28;20024;-80
2022/04/01 02:18:49;;;;;;;9.68;5.25;;;1.30;99.90;;;;;;5067350;28;20027;-82
2022/04/01 02:21:17;;;;;;;4.93;4.22;;;1.30;99.90;;;;;;5064080;28;20108;-83
2022/04/01 02:23:46;;;;;;;5.88;4.75;;;1.30;99.90;;;;;;5062896;28;20031;-85
2022/04/01 02:26:13;;;;;;;6.35;4.45;;;1.30;99.90;;;;;;5062925;28;20071;-83
2022/04/01 02:28:43;;;;;;;5.38;3.95;;;1.30;99.90;;;;;;5080346;28;20028;-84
2022/04/01 02:31:11;;;;;;;7.97;4.38;;;1.40;99.90;;;;;;5079110;28;20086;-82
2022/04/01 02:33:37;;;;;;;6.25;4.43;;;1.30;99.90;;;;;;5062676;28;20032;-83
2022/04/01 02:36:06;;;;;;;6.38;4.85;;;1.30;99.90;;;;;;5078958;28;20028;-82
2022/04/01 02:38:32;;;;;;;5.65;4.40;;;1.30;99.90;;;;;;5062857;28;20474;-82
2022/04/01 02:40:58;;;;;;;6.18;4.70;;;1.30;99.90;;;;;;5071238;28;20020;-82
2022/04/01 02:43:25;;;;;;;5.72;5.03;;;1.30;99.90;;;;;;5075863;28;20078;-84
2022/04/01 02:45:51;;;;;;;5.32;4.05;;;1.30;99.90;;;;;;5056519;28;20060;-83
2022/04/01 02:48:19;;;;;;;5.10;4.20;;;1.30;99.90;;;;;;5055598;28;20036;-82
2022/04/01 02:50:47;;;;;;;6.10;4.63;;;1.30;99.90;;;;;;5070715;28;20292;-82
2022/04/01 02:53:16;;;;;;;5.97;4.53;;;1.30;99.90;;;;;;5053203;28;20024;-84
2022/04/01 02:55:43;;;;;;;6.28;4.75;;;1.30;99.90;;;;;;5062120;28;20029;-80
2022/04/01 02:58:09;;;;;;;5.60;4.57;;;1.30;99.90;;;;;;5040593;28;20481;-80
2022/04/01 03:00:37;;;;;;;5.72;4.20;;;1.30;99.90;;;;;;5059336;28;20040;-81
2022/04/01 03:03:08;;;;;;;12.63;6.63;;;1.30;99.90;;;;;;5041947;28;20116;-81
2022/04/01 03:05:38;;;;;;;5.43;4.15;;;1.30;99.90;;;;;;5058824;28;20095;-81
2022/04/01 03:08:09;;;;;;;5.18;3.97;;;1.30;99.90;;;;;;5046073;28;20047;-83
2022/04/01 03:10:37;;;;;;;7.63;4.57;;;1.20;99.90;;;;;;5042594;28;20086;-82
2022/04/01 03:13:03;;;;;;;5.70;4.38;;;1.20;99.90;;;;;;5058773;28;20017;-80
2022/04/01 03:15:32;;;;;;;5.13;3.97;;;1.30;99.90;;;;;;5040546;28;20136;-81
2022/04/01 03:17:59;;;;;;;6.20;4.97;;;1.20;99.90;;;;;;5041177;28;20021;-78
2022/04/01 03:20:25;;;;;;;6.68;4.63;;;1.20;99.90;;;;;;5058684;28;20411;-80
2022/04/01 03:22:52;;;;;;;5.53;4.50;;;1.20;99.90;;;;;;5041423;28;20404;-81
2022/04/01 03:25:19;;;;;;;5.63;4.55;;;1.20;99.90;;;;;;5040163;28;20077;-82
2022/04/01 03:27:48;;;;;;;5.85;4.13;;;1.20;99.90;;;;;;5040200;28;20029;-80
2022/04/01 03:30:17;;;;;;;5.00;4.50;;;1.20;99.90;;;;;;5060327;28;20052;-81
2022/04/01 03:32:45;;;;;;;6.90;5.05;;;1.20;99.90;;;;;;5043722;28;20024;-79
2022/04/01 03:35:15;;;;;;;5.38;4.40;;;1.20;99.90;;;;;;5042795;28;20032;-82
2022/04/01 03:37:41;;;;;;;5.60;4.53;;;1.20;99.90;;;;;;5041974;28;20025;-82
2022/04/01 03:40:08;;;;;;;5.80;4.60;;;1.20;99.90;;;;;;5039498;28;20033;-82
2022/04/01 03:42:35;;;;;;;5.75;4.72;;;1.20;99.90;;;;;;5039915;28;20031;-81
2022/04/01 03:45:06;;;;;;;4.45;3.65;;;1.20;99.90;;;;;;5039669;28;20036;-81
2022/04/01 03:47:41;;;;;;;5.63;4.30;;;1.20;99.90;;;;;;5058398;28;20051;-81
2022/04/01 03:50:10;;;;;;;6.75;4.50;;;1.20;99.90;;;;;;5040037;28;20469;-82
2022/04/01 03:52:36;;;;;;;5.45;4.40;;;1.20;99.90;;;;;;5039845;28;20041;-80
2022/04/01 03:55:05;;;;;;;4.70;4.07;;;1.20;99.90;;;;;;5040398;28;20040;-82
2022/04/01 03:57:37;;;;;;;5.15;4.03;;;1.20;99.90;;;;;;5039450;28;20028;-81
2022/04/01 04:00:05;;;;;;;5.78;4.30;;;1.10;99.90;;;;;;5038985;28;20555;-81
2022/04/01 04:02:34;;;;;;;4.90;4.13;;;1.10;99.90;;;;;;5039089;28;20135;-80
2022/04/01 04:05:01;;;;;;;4.18;3.47;;;1.10;99.90;;;;;;5037859;28;20021;-82
2022/04/01 04:07:27;;;;;;;5.45;4.35;;;1.10;99.90;;;;;;5038671;28;20032;-81
2022/04/01 04:09:53;;;;;;;4.05;3.70;;;1.10;99.90;;;;;;5052905;28;20384;-80
2022/04/01 04:12:22;;;;;;;4.97;3.92;;;1.10;99.90;;;;;;5035399;28;20025;-82
2022/04/01 04:14:54;;;;;;;4.68;3.85;;;1.10;99.90;;;;;;5035492;28;20029;-80
2022/04/01 04:17:37;;;;;;;5.47;3.72;;;1.10;99.90;;;;;;5053740;28;20052;-80
2022/04/01 04:20:09;;;;;;;4.05;3.20;;;1.10;99.90;;;;;;5053818;28;20025;-81
2022/04/01 04:23:03;;;;;;;4.30;3.70;;;1.10;99.90;;;;;;5054547;28;20371;-84
2022/04/01 04:25:35;;;;;;;3.72;3.08;;;1.10;99.90;;;;;;5036555;28;20120;-83
2022/04/01 04:28:01;;;;;;;4.85;3.38;;;1.10;99.90;;;;;;5035156;28;20068;-81
2022/04/01 04:30:44;;;;;;;6.05;3.53;;;1.10;99.90;;;;;;5035073;28;20057;-80
2022/04/01 04:33:11;;;;;;;5.20;3.67;;;1.10;99.90;;;;;;5037503;28;20028;-82
2022/04/01 04:35:39;;;;;;;4.68;3.22;;;1.10;99.90;;;;;;5054835;28;20033;-81
2022/04/01 04:38:06;;;;;;;6.03;3.25;;;1.00;99.90;;;;;;5061288;28;20048;-83
2022/04/01 04:40:34;;;;;;;3.65;2.78;;;1.10;99.90;;;;;;5075786;28;20028;-82
2022/04/01 04:43:00;;;;;;;6.18;3.10;;;1.10;99.90;;;;;;5073700;28;20032;-84
2022/04/01 04:45:27;;;;;;;5.05;3.80;;;1.10;99.90;;;;;;5041592;28;20029;-85
2022/04/01 04:47:54;;;;;;;5.97;3.47;;;1.10;99.90;;;;;;5058155;28;20040;-82
2022/04/01 04:50:20;;;;;;;4.85;3.03;;;1.00;99.90;;;;;;5044795;28;20056;-82
2022/04/01 04:52:49;;;;;;;7.47;3.35;;;1.00;99.90;;;;;;5059892;28;20022;-82
2022/04/01 04:55:17;;;;;;;3.65;2.72;;;1.10;99.90;;;;;;5036118;28;20469;-83
2022/04/01 04:57:44;;;;;;;6.53;3.78;;;1.00;99.90;;;;;;5043791;28;20029;-81
2022/04/01 05:00:11;;;;;;;4.97;3.80;;;1.00;99.90;;;;;;5054450;28;20119;-80
2022/04/01 05:03:07;;;;;;;4.82;3.40;;;1.00;99.90;;;;;;5072596;28;20520;-82
2022/04/01 05:05:38;;;;;;;4.32;3.60;;;1.00;99.90;;;;;;5057332;28;20032;-81
2022/04/01 05:08:25;;;;;;;4.53;3.45;;;1.00;99.90;;;;;;5036746;28;20029;-80
2022/04/01 05:11:05;;;;;;;4.75;3.30;;;1.00;99.90;;;;;;5036553;28;20035;-82
2022/04/01 05:13:52;;;;;;;4.95;3.33;;;1.00;99.90;;;;;;5054531;28;20047;-81
2022/04/01 05:16:48;;;;;;;4.03;3.55;;;1.00;99.90;;;;;;5053831;28;20102;-80
2022/04/01 05:19:23;;;;;;;5.32;3.80;;;1.00;99.90;;;;;;5053583;28;20031;-80
2022/04/01 05:22:00;;;;;;;5.47;3.72;;;1.00;99.90;;;;;;5053745;28;20043;-80
2022/04/01 05:24:34;;;;;;;6.97;3.65;;;1.00;99.90;;;;;;5035309;28;20035;-81
2022/04/01 05:27:03;;;;;;;4.60;3.65;;;1.00;99.90;;;;;;5036378;28;20195;-79
2022/04/01 05:29:36;;;;;;;4.60;3.58;;;1.00;99.90;;;;;;5035404;28;20115;-81
2022/04/01 05:32:04;;;;;;;5.38;3.67;;;1.00;99.90;;;;;;5034454;28;20057;-80
2022/04/01 05:34:41;;;;;;;4.65;3.20;;;1.00;99.90;;;;;;5052952;28;20031;-81
2022/04/01 05:37:07;;;;;;;4.75;3.80;;;1.00;99.90;;;;;;5052428;28;20025;-83
2022/04/01 05:39:35;;;;;;;4.78;3.92;;;1.00;99.90;;;;;;5035446;28;20099;-82
2022/04/01 05:42:01;;;;;;;5.97;3.85;;;1.00;99.90;;;;;;5035507;28;20061;-83
2022/04/01 05:44:29;;;;;;;5.10;4.05;;;1.00;99.90;;;;;;5059476;28;20020;-80
2022/04/01 05:46:55;;;;;;;4.95;3.60;;;1.00;99.90;;;;;;5072379;28;20081;-81
2022/04/01 05:49:25;;;;;;;4.65;4.15;;;1.00;99.90;;;;;;5054433;28;20063;-82
2022/04/01 05:51:50;;;;;;;5.88;4.13;;;1.00;99.90;;;;;;5072748;28;20017;-81
2022/04/01 05:54:19;;;;;;;6.07;4.20;;;1.00;99.90;;;;;;5075585;28;20031;-83
2022/04/01 05:56:46;;;;;;;7.38;3.67;;;1.00;99.90;;;;;;5058275;28;20028;-81
2022/04/01 05:59:12;;;;;;;4.70;3.38;;;1.00;99.90;;;;;;5058279;28;20051;-83
2022/04/01 06:01:47;;;;;;;6.55;3.78;;;1.00;99.90;;;;;;5058441;28;20046;-81
2022/04/01 06:04:50;;;;;;;6.30;4.03;;;1.00;99.90;;;;;;5058839;28;20021;-81
2022/04/01 06:07:48;;;;;;;4.95;3.35;;;1.00;99.90;;;;;;5074634;28;20024;-81
2022/04/01 06:10:22;;;;;;;5.43;3.70;;;0.90;99.90;;;;;;5076134;28;20021;-81
2022/04/01 06:13:03;;;;;;;5.95;3.58;;;0.90;99.90;;;;;;5076237;28;20021;-81
2022/04/01 06:15:47;;;;;;;4.78;3.28;;;0.90;99.90;;;;;;5076257;28;20021;-80
2022/04/01 06:18:21;;;;;;;6.20;3.45;;;0.90;99.90;;;;;;5058846;28;20029;-79
2022/04/01 06:20:48;;;;;;;5.00;3.70;;;0.90;99.90;;;;;;5058382;28;20551;-81
2022/04/01 06:23:23;;;;;;;4.05;3.63;;;1.00;99.90;;;;;;5057638;28;20028;-80
2022/04/01 06:26:00;;;;;;;3.95;3.45;;;1.00;99.90;;;;;;5058407;28;20032;-79
2022/04/01 06:28:32;;;;;;;5.28;3.42;;;1.00;99.90;;;;;;5058353;28;20032;-80
2022/04/01 06:31:08;;;;;;;6.45;3.38;;;1.00;99.90;;;;;;5059113;28;20047;-78
2022/04/01 06:33:57;;;;;;;;;;;1.10;99.90;;;;;;5058280;28;20021;-79
2022/04/01 06:36:31;;;;;;;4.85;3.47;;;1.00;99.90;;;;;;5074474;28;19966;-81
2022/04/01 06:39:05;;;;;;;5.40;3.28;;;1.00;99.90;;;;;;5057522;28;20027;-78
2022/04/01 06:41:40;;;;;;;5.57;2.97;;;1.00;99.90;;;;;;5075043;28;20020;-81
2022/04/01 06:44:06;;;;;;;5.10;3.42;;;0.90;99.90;;;;;;5053193;28;20024;-82
2022/04/01 06:46:31;;;;;;;6.43;3.95;;;0.90;99.90;;;;;;5054935;28;20116;-78
2022/04/01 06:48:57;;;;;;;4.63;3.60;;;0.90;99.90;;;;;;5037135;28;20052;-81
2022/04/01 06:51:22;;;;;;;5.38;3.20;;;0.90;99.90;;;;;;5036850;28;20510;-80
2022/04/01 06:53:48;;;;;;;5.65;3.72;;;0.90;99.90;;;;;;5056666;28;20017;-83
2022/04/01 06:56:14;;;;;;;8.70;4.18;;;0.90;99.90;;;;;;5040465;28;20044;-82
2022/04/01 06:58:40;;;;;;;6.13;4.10;;;0.90;99.90;;;;;;5057323;28;20033;-80
2022/04/01 07:01:05;;;;;;;5.85;3.85;;;1.00;99.90;;;;;;5039113;28;20048;-81
2022/04/01 07:03:31;;;;;;;7.57;3.63;;;1.00;99.90;;;;;;5055588;28;20530;-80
2022/04/01 07:05:58;;;;;;;5.43;3.70;;;1.00;99.90;;;;;;5037174;28;20029;-78
2022/04/01 07:08:24;;;;;;;6.55;3.90;;;1.00;99.90;;;;;;5055102;28;20029;-79
2022/04/01 07:10:49;;;;;;;6.40;3.85;;;1.00;99.90;;;;;;5055070;28;20453;-79
2022/04/01 07:13:15;;;;;;;4.13;3.72;;;1.10;99.90;;;;;;5055234;28;20029;-76
2022/04/01 07:15:41;;;;;;;6.90;4.60;;;1.10;99.90;;;;;;5036944;28;20103;-79
2022/04/01 07:18:07;;;;;;;7.00;4.05;;;1.10;99.90;;;;;;5054299;28;20025;-79
2022/04/01 07:20:33;;;;;;;5.00;4.00;;;1.10;99.90;;;;;;5038536;28;20027;-79
2022/04/01 07:22:59;;;;;;;8.93;4.75;;;1.10;99.90;;;;;;5074312;28;20430;-80
2022/04/01 07:25:25;;;;;;;5.68;4.22;;;1.10;99.90;;;;;;5056700;28;20064;-80
2022/04/01 07:27:54;;;;;;;5.85;3.65;;;1.10;99.90;;;;;;5041666;23;20057;-86
2022/04/01 07:30:20;;;;;;;17.13;10.10;;;1.10;99.90;;;;;;4997900;28;20053;-82
2022/04/01 07:32:50;;;;;;;8.05;5.10;;;1.10;99.90;;;;;;4998475;28;20446;-84
2022/04/01 07:35:16;;;;;;;6.32;4.80;;;1.10;99.90;;;;;;4998772;28;20026;-84
2022/04/01 07:37:42;;;;;;;7.88;4.82;;;1.10;99.90;;;;;;4997296;28;20132;-83
2022/04/01 07:40:13;;;;;;;7.18;4.32;;;1.10;99.90;;;;;;4997238;28;20517;-82
2022/04/01 07:42:39;;;;;;;7.40;5.07;;;1.00;99.90;;;;;;4997244;28;20034;-84
2022/04/01 07:45:07;;;;;;;7.57;4.60;;;1.10;99.90;;;;;;5014964;28;20026;-83
2022/04/01 07:47:34;;;;;;;5.40;4.20;;;1.10;99.90;;;;;;4997878;28;20064;-87
2022/04/01 07:50:03;;;;;;;11.25;5.82;;;1.10;99.90;;;;;;4999393;28;20462;-87
2022/04/01 07:52:29;;;;;;;6.03;3.88;;;1.10;99.90;;;;;;5000853;28;20018;-87
2022/04/01 07:54:55;;;;;;;5.72;3.70;;;1.10;99.90;;;;;;5001875;28;20385;-87
2022/04/01 07:57:21;;;;;;;4.53;3.50;;;1.10;99.90;;;;;;5007329;28;20026;-83
2022/04/01 07:59:47;;;;;;;6.20;3.90;;;1.00;99.90;;;;;;5020039;28;20102;-80
2022/04/01 08:02:13;;;;;;;6.00;4.07;;;1.10;99.90;;;;;;5003014;28;20458;-86
2022/04/01 08:04:40;;;;;;;4.15;3.60;;;1.10;99.90;;;;;;5016380;28;20503;-85
2022/04/01 08:07:07;;;;;;;50.25;21.40;;;1.10;99.90;;;;;;5000491;28;20025;-88
2022/04/01 08:09:33;;;;;;;10.63;5.68;;;1.10;99.90;;;;;;4997877;28;20030;-84
2022/04/01 08:12:01;;;;;;;5.43;3.90;;;1.10;99.90;;;;;;5009210;28;20036;-85
2022/04/01 08:14:27;;;;;;;7.72;3.97;;;1.20;99.90;;;;;;5018130;28;20031;-90
2022/04/01 08:16:53;;;;;;;5.88;4.20;;;1.10;99.90;;;;;;4998066;28;20025;-86
2022/04/01 08:19:26;;;;;;;7.90;4.28;;;1.20;99.90;;;;;;5001303;28;20117;-89
2022/04/01 08:21:52;;;;;;;6.53;4.55;;;1.20;99.90;;;;;;5000305;28;20026;-88
2022/04/01 08:24:20;;;;;;;9.10;4.70;;;1.20;99.90;;;;;;5016777;28;20033;-87
2022/04/01 08:26:46;;;;;;;4.97;3.97;;;1.20;99.90;;;;;;5001075;28;20076;-87
2022/04/01 08:29:11;;;;;;;8.50;5.05;;;1.30;99.90;;;;;;5001689;28;20037;-86
2022/04/01 08:31:37;;;;;;;12.77;7.07;;;1.30;99.90;;;;;;5002136;28;20022;-83
2022/04/01 08:34:03;;;;;;;7.93;4.90;;;1.30;99.90;;;;;;5000295;28;20018;-86
2022/04/01 08:36:29;;;;;;;11.77;5.68;;;1.20;99.90;;;;;;5000023;28;20375;-86
2022/04/01 08:38:54;;;;;;;6.85;4.78;;;1.30;99.90;;;;;;4998182;28;20053;-89
2022/04/01 08:41:22;;;;;;;8.95;5.53;;;1.20;99.90;;;;;;4998914;28;20057;-86
2022/04/01 08:43:50;;;;;;;8.57;4.93;;;1.30;99.90;;;;;;4999311;28;20034;-87
2022/04/01 08:46:17;;;;;;;7.93;4.20;;;1.30;99.90;;;;;;5005751;28;20030;-86
2022/04/01 08:48:43;;;;;;;7.72;4.90;;;1.30;99.90;;;;;;5016107;28;20030;-84
2022/04/01 08:51:10;;;;;;;6.50;4.38;;;1.30;99.90;;;;;;5001092;28;20084;-87
2022/04/01 08:53:41;;;;;;;5.95;4.03;;;1.30;99.90;;;;;;5001591;28;20060;-86
2022/04/01 08:56:08;;;;;;;5.63;3.83;;;1.40;99.90;;;;;;5001534;28;20032;-88
2022/04/01 08:58:34;;;;;;;5.65;3.85;;;1.30;99.90;;;;;;5003282;28;20097;-86
2022/04/01 09:01:07;;;;;;;5.75;4.00;;;1.40;99.90;;;;;;5003615;28;20270;-86
2022/04/01 09:03:35;;;;;;;6.50;3.90;;;1.40;99.90;;;;;;5003859;28;20030;-86
2022/04/01 09:06:05;;;;;;;4.63;3.25;;;1.30;99.90;;;;;;5003061;28;20036;-86
2022/04/01 09:08:41;;;;;;;7.07;4.43;;;1.40;99.90;;;;;;5003319;28;20080;-85
2022/04/01 09:11:18;;;;;;;5.57;3.60;;;1.40;99.90;;;;;;5003527;28;20100;-86
2022/04/01 09:13:44;;;;;;;7.50;4.13;;;1.40;99.90;;;;;;5002844;28;20094;-85
2022/04/01 09:16:27;;;;;;;17.42;9.27;;;1.40;99.90;;;;;;5003184;28;20033;-86
2022/04/01 09:18:58;;;;;;;7.28;4.38;;;1.40;99.90;;;;;;5003908;28;20025;-85
2022/04/01 09:21:49;;;;;;;18.35;10.82;;;1.40;99.90;;;;;;5005117;28;20068;-86
2022/04/01 09:24:19;;;;;;;8.85;5.47;;;1.50;99.90;;;;;;5004828;28;20112;-89
2022/04/01 09:26:57;;;;;;;6.78;4.13;;;1.50;99.90;;;;;;5022269;28;20026;-88
2022/04/01 09:29:31;;;;;;;14.10;5.55;;;1.40;99.90;;;;;;5001012;28;20049;-89
2022/04/01 09:32:06;;;;;;;7.35;3.50;;;1.50;99.90;;;;;;5001750;28;20116;-87
2022/04/01 09:34:37;;;;;;;6.65;4.28;;;1.50;99.90;;;;;;5001343;28;20082;-86
2022/04/01 09:37:03;;;;;;;7.43;4.22;;;1.60;99.90;;;;;;4999542;28;20167;-88
2022/04/01 09:39:29;;;;;;;6.80;4.03;;;1.60;99.90;;;;;;5000585;28;20133;-88
2022/04/01 09:41:58;;;;;;;7.55;4.20;;;1.60;99.90;;;;;;5017985;28;20026;-89
2022/04/01 09:44:29;;;;;;;8.25;4.03;;;1.70;99.90;;;;;;5006085;28;20028;-86
2022/04/01 09:47:00;;;;;;;12.10;6.05;;;1.80;99.90;;;;;;5019807;28;20025;-87
2022/04/01 09:49:42;;;;;;;6.13;4.05;;;1.90;99.90;;;;;;5035415;28;20049;-88
2022/04/01 09:52:12;;;;;;;8.35;4.47;;;1.80;99.90;;;;;;5020231;28;20093;-90
2022/04/01 09:54:49;;;;;;;7.93;4.10;;;1.80;99.90;;;;;;5023028;28;20029;-84
2022/04/01 09:57:16;;;;;;;9.98;4.50;;;1.80;99.90;;;;;;5020276;28;20076;-85
2022/04/01 09:59:43;;;;;;;11.55;4.93;;;1.80;99.90;;;;;;5021011;28;20580;-86
2022/04/01 10:02:09;;;;;;;8.18;3.85;;;1.80;99.90;;;;;;5030376;28;20028;-79
2022/04/01 10:04:34;;;;;;;9.15;5.28;;;1.90;99.90;;;;;;5036837;28;20061;-87
2022/04/01 10:07:03;;;;;;;9.23;5.00;;;2.00;99.90;;;;;;5021109;28;20025;-82
2022/04/01 10:09:29;;;;;;;6.22;4.13;;;2.10;99.90;;;;;;5020165;28;20018;-85
2022/04/01 10:12:02;;;;;;;6.05;3.58;;;2.00;99.90;;;;;;5022875;28;20021;-87
2022/04/01 10:14:31;;;;;;;9.50;3.50;;;2.00;99.90;;;;;;5040937;28;20018;-87
2022/04/01 10:17:02;;;;;;;4.93;3.95;;;1.90;99.90;;;;;;5021499;28;20059;-87
2022/04/01 10:19:30;;;;;;;11.52;5.93;;;1.90;99.90;;;;;;5021967;28;20073;-87
2022/04/01 10:21:56;;;;;;;7.43;4.15;;;2.00;99.90;;;;;;5021646;28;20487;-87
2022/04/01 10:24:46;;;;;;;11.32;4.93;;;1.90;99.90;;;;;;5020894;28;20089;-85
2022/04/01 10:27:30;;;;;;;6.15;4.18;;;1.80;99.90;;;;;;5022691;28;20021;-88
2022/04/01 10:29:57;;;;;;;6.22;4.15;;;1.70;99.90;;;;;;5019952;28;20036;-84
2022/04/01 10:32:29;;;;;;;7.40;4.20;;;1.70;99.90;;;;;;5023027;28;20033;-88
2022/04/01 10:34:58;;;;;;;8.15;4.45;;;1.60;99.90;;;;;;5022844;28;20060;-84
2022/04/01 10:37:25;;;;;;;7.55;4.07;;;1.60;99.90;;;;;;5021671;28;20094;-88
2022/04/01 10:39:54;;;;;;;8.93;4.60;;;1.70;99.90;;;;;;5024784;28;20099;-82
2022/04/01 10:42:30;;;;;;;6.47;3.80;;;1.70;99.90;;;;;;5029709;28;20025;-87
2022/04/01 10:45:00;;;;;;;7.18;3.85;;;1.50;99.90;;;;;;5034738;28;20030;-85
2022/04/01 10:53:45;;;;;;;8.60;5.78;;;1.40;99.90;;;;;;5024178;28;20057;-88
2022/04/01 10:56:26;;;;;;;6.35;4.53;;;1.50;99.90;;;;;;5007731;28;20026;-89
2022/04/01 10:59:15;;;;;;;6.97;4.38;;;1.50;99.90;;;;;;5005597;28;20103;-88
2022/04/01 11:02:02;;;;;;;8.20;4.88;;;1.40;99.90;;;;;;5007488;28;20112;-89
2022/04/01 11:04:37;;;;;;;6.50;4.80;;;1.40;99.90;;;;;;5004713;28;20054;-85
2022/04/01 11:07:03;;;;;;;7.15;4.88;;;1.40;99.90;;;;;;5003637;28;20394;-89
2022/04/01 11:09:36;;;;;;;7.28;4.22;;;1.30;99.90;;;;;;5006102;28;20025;-87
2022/04/01 11:12:20;;;;;;;7.07;4.85;;;1.40;99.90;;;;;;5003834;28;20022;-89
2022/04/01 11:17:28;;;;;;;11.15;5.20;;;1.30;99.90;;;;;;5023820;28;20073;-86
2022/04/01 11:20:07;;;;;;;7.35;4.93;;;1.30;99.90;;;;;;5019268;28;20351;-86
2022/04/01 11:22:54;;;;;;;6.97;5.10;;;1.40;99.90;;;;;;5004113;28;20095;-90
2022/04/01 11:25:22;;;;;;;8.27;5.20;;;1.40;99.90;;;;;;5020261;28;20060;-89
2022/04/01 11:28:10;;;;;;;8.30;5.10;;;1.40;99.90;;;;;;5001740;28;20096;-87
2022/04/01 11:30:40;;;;;;;6.78;5.05;;;1.40;99.90;;;;;;5018776;28;20486;-90
2022/04/01 11:33:13;;;;;;;7.97;5.60;;;1.40;99.90;;;;;;5003111;28;20018;-86
2022/04/01 11:35:41;;;;;;;9.15;4.88;;;1.40;99.90;;;;;;5020171;28;20081;-86
2022/04/01 11:38:13;;;;;;;9.60;5.65;;;1.40;99.90;;;;;;5001225;28;20033;-85
2022/04/01 11:40:41;;;;;;;10.95;5.68;;;1.30;99.90;;;;;;5003206;28;20101;-88
2022/04/01 11:43:12;;;;;;;7.55;5.35;;;1.40;99.90;;;;;;5002108;28;20113;-83
2022/04/01 11:45:45;;;;;;;8.13;5.50;;;1.50;99.90;;;;;;5002551;28;20022;-85
2022/04/01 11:48:22;;;;;;;10.77;5.65;;;1.40;99.90;;;;;;5005800;28;20141;-86
2022/04/01 11:50:55;;;;;;;10.05;6.18;;;1.50;99.90;;;;;;5004841;28;20085;-88
2022/04/01 11:53:27;;;;;;;8.68;5.45;;;1.50;99.90;;;;;;5013554;28;20037;-80
2022/04/01 11:55:54;;;;;;;8.10;5.32;;;1.50;99.90;;;;;;5017414;28;20054;-89
2022/04/01 11:58:24;;;;;;;8.73;5.20;;;1.50;99.90;;;;;;5002471;28;20034;-86
2022/04/01 12:00:50;;;;;;;10.40;6.18;;;1.40;99.90;;;;;;5003827;28;20054;-88
2022/04/01 12:03:19;;;;;;;11.65;5.55;;;1.40;99.90;;;;;;5003488;28;20097;-88
2022/04/01 12:05:50;;;;;;;9.73;6.10;;;1.40;99.90;;;;;;5012876;28;20107;-83
2022/04/01 12:11:01;;;;;;;10.82;5.28;;;1.30;99.90;;;;;;5019065;28;20033;-89
2022/04/01 12:13:31;;;;;;;8.82;5.55;;;1.40;99.90;;;;;;5003087;28;20090;-87
2022/04/01 12:16:02;;;;;;;7.78;5.72;;;1.40;99.90;;;;;;5003696;28;20496;-86
2022/04/01 12:18:30;;;;;;;9.77;5.60;;;1.30;99.90;;;;;;5004149;28;20033;-88
2022/04/01 12:20:59;;;;;;;8.40;5.18;;;1.40;99.90;;;;;;5002526;28;20565;-88
2022/04/01 12:23:30;;;;;;;11.68;5.80;;;1.40;99.90;;;;;;5018949;28;20025;-88
2022/04/01 12:25:56;;;;;;;6.82;4.93;;;1.40;99.90;;;;;;5001452;28;20104;-89
2022/04/01 12:28:48;;;;;;;10.43;5.70;;;1.30;99.90;;;;;;5002551;28;20026;-90
2022/04/01 12:31:24;;;;;;;9.02;5.30;;;1.30;99.90;;;;;;4996401;28;20042;-89
2022/04/01 12:33:58;;;;;;;9.73;5.63;;;1.30;99.90;;;;;;5004929;28;20049;-84
2022/04/01 12:36:30;;;;;;;11.73;5.43;;;1.30;99.90;;;;;;5013357;28;20130;-87
2022/04/01 12:39:06;;;;;;;8.60;5.20;;;1.20;99.90;;;;;;5027955;28;20077;-84
2022/04/01 12:41:32;;;;;;;8.20;5.00;;;1.30;99.90;;;;;;5009319;28;20117;-86
2022/04/01 12:44:00;;;;;;;10.27;5.70;;;1.20;99.90;;;;;;5010814;28;20037;-86
2022/04/01 12:46:40;;;;;;;13.38;6.07;;;1.30;99.90;;;;;;5028418;28;20018;-85
2022/04/01 12:49:16;;;;;;;11.40;5.68;;;1.40;99.90;;;;;;5011408;28;20076;-81
2022/04/01 12:52:02;;;;;;;11.88;6.10;;;1.50;99.90;;;;;;5021855;28;20029;-87
2022/04/01 12:54:38;;;;;;;5.78;4.15;;;1.50;99.90;;;;;;5001471;28;20021;-85
2022/04/01 12:57:05;;;;;;;;;;;1.60;99.90;;;;;;5004325;28;20025;-82
2022/04/01 12:59:45;;;;;;;14.77;6.57;;;1.50;99.90;;;;;;5000149;28;19933;-86
2022/04/01 13:02:19;;;;;;;10.98;6.07;;;1.50;99.90;;;;;;4999226;28;20033;-87
2022/04/01 13:04:50;;;;;;;9.07;5.15;;;1.50;99.90;;;;;;4999675;28;20034;-84
2022/04/01 13:07:18;;;;;;;12.75;6.90;;;1.50;99.90;;;;;;5002225;28;20034;-82
2022/04/01 13:09:55;;;;;;;10.07;6.28;;;1.40;99.90;;;;;;5016127;28;20124;-82
2022/04/01 13:12:23;;;;;;;8.43;6.20;;;1.50;99.90;;;;;;5016512;28;20049;-85
2022/04/01 13:15:05;;;;;;;10.10;6.10;;;1.40;99.90;;;;;;4998618;28;20030;-86
2022/04/01 13:17:41;;;;;;;8.98;5.88;;;1.50;99.90;;;;;;4998600;28;20163;-87
2022/04/01 13:20:08;;;;;;;10.32;7.00;;;1.60;99.90;;;;;;4998850;28;20029;-86
2022/04/01 13:22:34;;;;;;;9.10;6.93;;;1.60;99.90;;;;;;4999494;28;20033;-85
2022/04/01 13:25:00;;;;;;;14.02;6.63;;;1.70;99.90;;;;;;4998669;28;20056;-88